Time;durP1;ratioP1;P1;durP2;ratioP2;P2;SDS_P1;SDS_P2;PMS_P1;PMS_P2;Temp;Humidity;BMP_temperature;BMP_pressure;BME280_temperature;BME280_humidity;BME280_pressure;Samples;Min_cycle;Max_cycle;Signal;HPM_P1;HPM_P2
2023/07/27 00:01:39;;;;;;;3.17;2.08;;;18.50;99.90;;;;;;4994229;28;20199;-69
2023/07/27 00:04:05;;;;;;;2.58;1.92;;;18.50;99.90;;;;;;5002603;28;20187;-71
2023/07/27 00:06:31;;;;;;;2.63;2.00;;;18.50;99.90;;;;;;5014147;28;20182;-72
2023/07/27 00:08:57;;;;;;;2.60;1.88;;;18.50;99.90;;;;;;5014165;28;20163;-71
2023/07/27 00:11:22;;;;;;;3.03;1.80;;;18.50;99.90;;;;;;4993909;28;20195;-70
2023/07/27 00:13:48;;;;;;;3.80;1.98;;;18.50;99.90;;;;;;4974982;28;20262;-71
2023/07/27 00:16:13;;;;;;;4.30;2.20;;;18.50;99.90;;;;;;4975311;28;20219;-70
2023/07/27 00:18:39;;;;;;;4.18;2.20;;;18.50;99.90;;;;;;4975128;28;20211;-71
2023/07/27 00:21:07;;;;;;;2.53;2.10;;;18.60;99.90;;;;;;4975160;28;20192;-71
2023/07/27 00:23:32;;;;;;;2.72;1.92;;;18.60;99.90;;;;;;4975041;28;20223;-71
2023/07/27 00:25:58;;;;;;;3.42;1.80;;;18.60;99.90;;;;;;4999189;28;20350;-70
2023/07/27 00:28:23;;;;;;;3.83;2.15;;;18.60;99.90;;;;;;5000740;28;20206;-71
2023/07/27 00:30:53;;;;;;;2.05;1.75;;;18.70;99.90;;;;;;4994103;28;20266;-71
2023/07/27 00:33:20;;;;;;;2.40;1.70;;;18.70;99.90;;;;;;4994610;28;20210;-71
2023/07/27 00:35:57;;;;;;;3.28;1.83;;;18.70;99.90;;;;;;4998105;28;20171;-71
2023/07/27 00:38:22;;;;;;;2.92;1.85;;;18.80;99.90;;;;;;4997596;28;20261;-71
2023/07/27 00:40:48;;;;;;;2.33;1.63;;;18.80;99.90;;;;;;4997419;28;20176;-71
2023/07/27 00:43:14;;;;;;;3.22;2.13;;;18.80;99.90;;;;;;4998035;28;20506;-71
2023/07/27 00:45:39;;;;;;;2.00;1.80;;;18.90;99.90;;;;;;4997579;28;20198;-70
2023/07/27 00:48:05;;;;;;;2.13;1.60;;;18.90;99.90;;;;;;5125725;23;20226;-71
2023/07/27 00:50:35;;;;;;;2.05;1.67;;;18.90;99.90;;;;;;4997688;28;20207;-72
2023/07/27 00:53:03;;;;;;;2.42;1.55;;;18.90;99.90;;;;;;4997742;28;20171;-72
2023/07/27 00:55:28;;;;;;;1.75;1.58;;;18.90;99.90;;;;;;4997525;28;20202;-71
2023/07/27 00:57:57;;;;;;;2.08;1.63;;;18.80;99.90;;;;;;4997680;28;20172;-71
2023/07/27 01:00:22;;;;;;;2.35;1.80;;;18.80;99.90;;;;;;4997470;28;20207;-71
2023/07/27 01:02:48;;;;;;;2.58;1.70;;;18.80;99.90;;;;;;4997670;28;20167;-70
2023/07/27 01:05:15;;;;;;;2.72;1.88;;;18.80;99.90;;;;;;4996478;28;20217;-68
2023/07/27 01:07:43;;;;;;;2.20;1.75;;;18.80;99.90;;;;;;4997752;28;20196;-68
2023/07/27 01:10:10;;;;;;;2.28;1.70;;;18.70;99.90;;;;;;4997129;28;20195;-69
2023/07/27 01:12:56;;;;;;;2.42;1.73;;;18.70;99.90;;;;;;4997382;28;20203;-71
2023/07/27 01:15:30;;;;;;;1.73;1.50;;;18.70;99.90;;;;;;4997098;28;20195;-71
2023/07/27 01:18:12;;;;;;;2.92;1.85;;;18.60;99.90;;;;;;4997482;28;20361;-72
2023/07/27 01:20:53;;;;;;;1.92;1.65;;;18.60;99.90;;;;;;4996509;28;20199;-71
2023/07/27 01:23:39;;;;;;;2.20;1.58;;;18.60;99.90;;;;;;4997235;28;20183;-72
2023/07/27 01:26:26;;;;;;;1.80;1.50;;;18.60;99.90;;;;;;4997037;28;20541;-71
2023/07/27 01:28:54;;;;;;;1.70;1.42;;;18.60;99.90;;;;;;4997293;28;20186;-71
2023/07/27 01:31:27;;;;;;;2.42;1.80;;;18.50;99.90;;;;;;4997047;28;20262;-72
2023/07/27 01:34:05;;;;;;;2.08;1.65;;;18.50;99.90;;;;;;4996732;28;20270;-72
2023/07/27 01:36:41;;;;;;;2.65;2.00;;;18.50;99.90;;;;;;5004081;28;20307;-72
2023/07/27 01:39:10;;;;;;;1.88;1.60;;;18.60;99.90;;;;;;5016402;28;20182;-69
2023/07/27 01:41:41;;;;;;;2.08;1.63;;;18.60;99.90;;;;;;5016278;28;20199;-70
2023/07/27 01:44:12;;;;;;;2.97;1.92;;;18.60;99.90;;;;;;5015843;28;20252;-71
2023/07/27 01:46:39;;;;;;;2.63;1.77;;;18.60;99.90;;;;;;5015798;28;20162;-71
2023/07/27 01:49:06;;;;;;;2.05;1.42;;;18.70;99.90;;;;;;5016010;28;20187;-71
2023/07/27 01:51:35;;;;;;;1.50;1.40;;;18.70;99.90;;;;;;5016430;28;20178;-72
2023/07/27 01:54:03;;;;;;;2.13;1.80;;;18.80;99.90;;;;;;5004817;28;20207;-71
2023/07/27 01:56:30;;;;;;;2.75;1.70;;;18.80;99.90;;;;;;4996462;28;20179;-71
2023/07/27 01:58:57;;;;;;;3.20;1.55;;;18.90;99.90;;;;;;4996575;28;20225;-70
2023/07/27 02:01:26;;;;;;;2.65;1.95;;;18.90;99.90;;;;;;4996528;28;20175;-71
2023/07/27 02:03:53;;;;;;;3.35;1.52;;;18.90;99.90;;;;;;4996154;28;20262;-73
2023/07/27 02:06:19;;;;;;;2.28;1.60;;;19.00;99.90;;;;;;4996378;28;20178;-72
2023/07/27 02:08:47;;;;;;;3.10;2.00;;;19.00;99.90;;;;;;4995822;28;20191;-68
2023/07/27 02:11:16;;;;;;;2.05;1.70;;;19.00;99.90;;;;;;4995869;28;20182;-71
2023/07/27 02:13:46;;;;;;;2.40;1.70;;;19.00;99.90;;;;;;4995968;28;20196;-71
2023/07/27 02:16:21;;;;;;;1.58;1.38;;;19.10;99.90;;;;;;4995906;28;20190;-71
2023/07/27 02:18:50;;;;;;;2.35;1.80;;;19.10;99.90;;;;;;4995979;28;20194;-72
2023/07/27 02:21:19;;;;;;;1.83;1.40;;;19.10;99.90;;;;;;5012026;28;20189;-71
2023/07/27 02:23:51;;;;;;;2.22;1.60;;;19.10;99.90;;;;;;5031863;28;20288;-72
2023/07/27 02:26:16;;;;;;;1.73;1.40;;;19.20;99.90;;;;;;5008944;28;20200;-71
2023/07/27 02:28:45;;;;;;;1.65;1.52;;;19.20;99.90;;;;;;4992676;28;20180;-71
2023/07/27 02:31:10;;;;;;;1.88;1.50;;;19.20;99.90;;;;;;4994184;28;20222;-71
2023/07/27 02:33:39;;;;;;;2.42;1.50;;;19.20;99.90;;;;;;5011903;28;20171;-70
2023/07/27 02:36:04;;;;;;;3.13;1.60;;;19.20;99.90;;;;;;4996480;28;20167;-70
2023/07/27 02:38:30;;;;;;;2.08;1.48;;;19.20;99.90;;;;;;5012050;28;20172;-71
2023/07/27 02:40:56;;;;;;;2.28;1.80;;;19.20;99.90;;;;;;5011904;28;20171;-72
2023/07/27 02:43:24;;;;;;;2.53;1.70;;;19.20;99.90;;;;;;4995345;28;20172;-70
2023/07/27 02:45:49;;;;;;;3.30;1.45;;;19.20;99.90;;;;;;4995548;28;20206;-69
2023/07/27 02:48:17;;;;;;;1.98;1.45;;;19.10;99.90;;;;;;4995274;28;20187;-71
2023/07/27 02:50:50;;;;;;;4.20;1.80;;;19.10;99.90;;;;;;4995445;28;20195;-69
2023/07/27 02:53:16;;;;;;;3.75;1.75;;;19.10;99.90;;;;;;4995423;28;20262;-72
2023/07/27 02:55:41;;;;;;;3.35;1.55;;;19.10;99.90;;;;;;4995302;28;20286;-72
2023/07/27 02:58:07;;;;;;;1.83;1.50;;;19.10;99.90;;;;;;4993830;28;20181;-71
2023/07/27 03:00:33;;;;;;;2.85;1.60;;;19.00;99.90;;;;;;4994976;28;20225;-70
2023/07/27 03:03:00;;;;;;;1.65;1.40;;;19.00;99.90;;;;;;5011786;28;20183;-72
2023/07/27 03:05:30;;;;;;;1.92;1.73;;;19.00;99.90;;;;;;5014157;28;20229;-69
2023/07/27 03:07:56;;;;;;;2.67;1.60;;;18.90;99.90;;;;;;5031088;28;20179;-71
2023/07/27 03:10:21;;;;;;;2.10;1.67;;;18.90;99.90;;;;;;5002040;28;20211;-71
2023/07/27 03:12:49;;;;;;;2.13;1.50;;;18.80;99.90;;;;;;5011053;28;20171;-70
2023/07/27 03:15:14;;;;;;;3.28;1.70;;;18.70;99.90;;;;;;4995035;28;20187;-71
2023/07/27 03:17:42;;;;;;;3.42;1.58;;;18.70;99.90;;;;;;4995035;28;20282;-71
2023/07/27 03:20:08;;;;;;;2.35;1.70;;;18.60;99.90;;;;;;4994997;28;20225;-69
2023/07/27 03:22:36;;;;;;;2.78;1.75;;;18.50;99.90;;;;;;4994949;28;20203;-71
2023/07/27 03:25:04;;;;;;;4.20;2.22;;;18.40;99.90;;;;;;5011480;28;20209;-71
2023/07/27 03:27:30;;;;;;;2.53;1.90;;;18.30;99.90;;;;;;4994799;28;20202;-71
2023/07/27 03:29:58;;;;;;;6.13;3.67;;;18.30;99.90;;;;;;5010071;28;20180;-70
2023/07/27 03:32:26;;;;;;;4.22;3.33;;;18.20;99.90;;;;;;4994505;28;20416;-70
2023/07/27 03:34:51;;;;;;;3.63;2.55;;;18.20;99.90;;;;;;4994862;28;20175;-71
2023/07/27 03:37:17;;;;;;;4.78;2.30;;;18.10;99.90;;;;;;4994950;28;20210;-69
2023/07/27 03:39:42;;;;;;;2.85;2.10;;;18.10;99.90;;;;;;4994945;28;20206;-71
2023/07/27 03:42:11;;;;;;;4.65;3.08;;;18.00;99.90;;;;;;4995043;28;20234;-71
2023/07/27 03:44:40;;;;;;;2.50;2.10;;;18.00;99.90;;;;;;4994888;28;20230;-71
2023/07/27 03:47:08;;;;;;;3.38;3.08;;;17.90;99.90;;;;;;4994523;28;20182;-71
2023/07/27 03:49:33;;;;;;;2.60;2.20;;;17.80;99.90;;;;;;4994738;28;20194;-72
2023/07/27 03:51:59;;;;;;;3.28;2.33;;;17.80;99.90;;;;;;4994607;28;20171;-71
2023/07/27 03:54:27;;;;;;;3.67;2.20;;;17.80;99.90;;;;;;4994612;28;20266;-69
2023/07/27 03:56:52;;;;;;;2.90;1.90;;;17.70;99.90;;;;;;4994802;28;20199;-71
2023/07/27 03:59:20;;;;;;;3.03;2.05;;;17.70;99.90;;;;;;4994565;28;20209;-70
2023/07/27 04:01:46;;;;;;;3.45;2.10;;;17.60;99.90;;;;;;4994109;28;20202;-69
2023/07/27 04:04:12;;;;;;;5.50;4.40;;;17.60;99.90;;;;;;5003747;28;20206;-70
2023/07/27 04:06:41;;;;;;;3.72;2.55;;;17.50;99.90;;;;;;5030644;28;20221;-68
2023/07/27 04:09:12;;;;;;;7.20;2.60;;;17.50;99.90;;;;;;5031914;28;20195;-70
2023/07/27 04:11:37;;;;;;;3.25;2.22;;;17.50;99.90;;;;;;5034710;28;20185;-72
2023/07/27 04:14:03;;;;;;;3.72;2.33;;;17.40;99.90;;;;;;5034428;28;20194;-70
2023/07/27 04:16:31;;;;;;;2.28;2.08;;;17.30;99.90;;;;;;5034372;28;20182;-70
2023/07/27 04:18:57;;;;;;;3.10;2.38;;;17.30;99.90;;;;;;5028617;28;20171;-69
2023/07/27 04:21:22;;;;;;;2.95;2.40;;;17.30;99.90;;;;;;4998342;28;20181;-69
2023/07/27 04:23:48;;;;;;;4.15;2.72;;;17.20;99.90;;;;;;4998030;28;21393;-70
2023/07/27 04:26:16;;;;;;;3.80;2.30;;;17.20;99.90;;;;;;5014766;28;20172;-71
2023/07/27 04:28:42;;;;;;;3.88;2.63;;;17.20;99.90;;;;;;5014627;28;20224;-69
2023/07/27 04:31:09;;;;;;;3.80;2.65;;;17.10;99.90;;;;;;5014559;28;20431;-70
2023/07/27 04:33:35;;;;;;;3.90;2.65;;;17.10;99.90;;;;;;5014493;28;20171;-70
2023/07/27 04:36:03;;;;;;;4.45;3.00;;;17.10;99.90;;;;;;5013473;28;20209;-71
2023/07/27 04:38:29;;;;;;;3.53;2.60;;;17.00;99.90;;;;;;4997775;28;20176;-70
2023/07/27 04:40:55;;;;;;;5.25;3.00;;;17.00;99.90;;;;;;4997582;28;20203;-69
2023/07/27 04:43:20;;;;;;;4.05;3.10;;;17.00;99.90;;;;;;4997897;28;20171;-71
2023/07/27 04:45:48;;;;;;;5.50;2.88;;;16.90;99.90;;;;;;4997674;28;20310;-71
2023/07/27 04:48:16;;;;;;;4.55;2.80;;;16.90;99.90;;;;;;4997854;28;20331;-71
2023/07/27 04:50:44;;;;;;;3.42;3.00;;;16.90;99.90;;;;;;4996924;28;20682;-71
2023/07/27 04:53:10;;;;;;;4.90;3.45;;;16.80;99.90;;;;;;4998179;28;20222;-69
2023/07/27 04:55:42;;;;;;;3.70;3.15;;;16.80;99.90;;;;;;4997666;28;20175;-71
2023/07/27 04:58:08;;;;;;;3.90;2.97;;;16.80;99.90;;;;;;4997502;28;20180;-71
2023/07/27 05:00:34;;;;;;;3.35;2.83;;;16.80;99.90;;;;;;4997346;28;20198;-70
2023/07/27 05:02:59;;;;;;;4.70;3.08;;;16.70;99.90;;;;;;4997247;28;20171;-70
2023/07/27 05:05:25;;;;;;;4.65;2.75;;;16.70;99.90;;;;;;4997238;28;20199;-69
2023/07/27 05:07:53;;;;;;;3.85;2.90;;;16.60;99.90;;;;;;4996914;28;20329;-70
2023/07/27 05:10:18;;;;;;;4.65;2.72;;;16.60;99.90;;;;;;4997079;28;20171;-71
2023/07/27 05:12:46;;;;;;;3.42;2.50;;;16.60;99.90;;;;;;4997219;28;20206;-71
2023/07/27 05:15:14;;;;;;;3.65;2.88;;;16.60;99.90;;;;;;4997243;28;20180;-70
2023/07/27 05:17:40;;;;;;;3.45;2.72;;;16.50;99.90;;;;;;4997138;28;20210;-70
2023/07/27 05:20:08;;;;;;;3.92;2.85;;;16.60;99.90;;;;;;4996355;28;20175;-70
2023/07/27 05:22:34;;;;;;;3.58;2.90;;;16.50;99.90;;;;;;5013271;28;20199;-71
2023/07/27 05:24:59;;;;;;;5.43;2.80;;;16.50;99.90;;;;;;5013037;28;20199;-70
2023/07/27 05:27:25;;;;;;;3.72;2.53;;;16.50;99.90;;;;;;4996419;28;20251;-70
2023/07/27 05:29:51;;;;;;;3.92;2.88;;;16.50;99.90;;;;;;4996825;28;20175;-67
2023/07/27 05:32:16;;;;;;;3.85;2.85;;;16.50;99.90;;;;;;4996829;28;20255;-70
2023/07/27 05:34:44;;;;;;;5.30;2.72;;;16.50;99.90;;;;;;4996859;28;20175;-70
2023/07/27 05:37:09;;;;;;;4.45;2.90;;;16.50;99.90;;;;;;4996693;28;20211;-71
2023/07/27 05:39:37;;;;;;;4.50;2.85;;;16.50;99.90;;;;;;4996481;28;20215;-71
2023/07/27 05:42:03;;;;;;;3.03;2.70;;;16.50;99.90;;;;;;4993022;28;20183;-70
2023/07/27 05:44:29;;;;;;;3.10;2.70;;;16.50;99.90;;;;;;4993342;28;20235;-71
2023/07/27 05:46:55;;;;;;;3.85;2.70;;;16.50;99.90;;;;;;4993535;28;20171;-71
2023/07/27 05:49:21;;;;;;;2.85;2.55;;;16.50;99.90;;;;;;4992995;28;20211;-70
2023/07/27 05:51:47;;;;;;;4.00;2.65;;;16.40;99.90;;;;;;4993173;28;20176;-68
2023/07/27 05:54:14;;;;;;;3.92;2.55;;;16.40;99.90;;;;;;4993264;28;20211;-71
2023/07/27 05:56:42;;;;;;;4.13;3.17;;;16.50;99.90;;;;;;4992926;28;20187;-71
2023/07/27 05:59:08;;;;;;;4.32;2.95;;;16.50;99.90;;;;;;4993126;28;20184;-70
2023/07/27 06:01:35;;;;;;;4.15;2.88;;;16.40;99.90;;;;;;4993267;28;20172;-72
2023/07/27 06:04:03;;;;;;;4.45;3.20;;;16.40;99.90;;;;;;4993010;28;20216;-71
2023/07/27 06:06:29;;;;;;;3.55;2.85;;;16.40;99.90;;;;;;5013965;28;20182;-71
2023/07/27 06:08:54;;;;;;;4.32;2.85;;;16.50;99.90;;;;;;5032449;28;20175;-71
2023/07/27 06:11:23;;;;;;;4.03;2.83;;;16.40;99.90;;;;;;5032107;28;20175;-71
2023/07/27 06:13:53;;;;;;;4.10;3.50;;;16.40;99.90;;;;;;5019666;28;20183;-71
2023/07/27 06:16:19;;;;;;;4.30;3.20;;;16.40;99.90;;;;;;4996220;28;20282;-72
2023/07/27 06:18:44;;;;;;;4.53;3.13;;;16.40;99.90;;;;;;4996134;28;20270;-71
2023/07/27 06:21:12;;;;;;;3.97;2.95;;;16.40;99.90;;;;;;4996224;28;20209;-71
2023/07/27 06:23:38;;;;;;;3.78;3.05;;;16.40;99.90;;;;;;4995956;28;20182;-72
2023/07/27 06:26:06;;;;;;;4.63;3.40;;;16.40;99.90;;;;;;4995803;28;20203;-71
2023/07/27 06:28:35;;;;;;;3.25;2.78;;;16.40;99.90;;;;;;4995384;28;20175;-71
2023/07/27 06:31:02;;;;;;;3.47;2.80;;;16.40;99.90;;;;;;4995629;28;20210;-72
2023/07/27 06:33:27;;;;;;;4.57;2.92;;;16.40;99.90;;;;;;4995574;28;20172;-71
2023/07/27 06:35:53;;;;;;;3.60;2.65;;;16.40;99.90;;;;;;4995951;28;20236;-71
2023/07/27 06:38:19;;;;;;;3.00;2.70;;;16.40;99.90;;;;;;4995921;28;20207;-71
2023/07/27 06:40:45;;;;;;;3.35;2.85;;;16.40;99.90;;;;;;4995821;28;20175;-69
2023/07/27 06:43:10;;;;;;;3.92;3.00;;;16.40;99.90;;;;;;4995640;28;20182;-71
2023/07/27 06:45:36;;;;;;;3.90;2.80;;;16.40;99.90;;;;;;4987226;28;20195;-71
2023/07/27 06:48:04;;;;;;;3.45;2.80;;;16.40;99.90;;;;;;5033705;23;20259;-71
2023/07/27 06:50:33;;;;;;;2.78;2.58;;;16.40;99.90;;;;;;4973073;28;20172;-71
2023/07/27 06:53:00;;;;;;;3.53;2.58;;;16.50;99.90;;;;;;4973003;28;20204;-71
2023/07/27 06:55:28;;;;;;;2.47;2.10;;;16.50;99.90;;;;;;4972975;28;20194;-70
2023/07/27 06:57:57;;;;;;;2.25;2.05;;;16.50;99.90;;;;;;4972519;28;20279;-71
2023/07/27 07:00:23;;;;;;;2.75;2.30;;;16.60;99.90;;;;;;4972635;28;20191;-69
2023/07/27 07:02:49;;;;;;;2.20;1.92;;;16.60;99.90;;;;;;4972577;28;20281;-70
2023/07/27 07:05:17;;;;;;;3.75;2.40;;;16.60;99.90;;;;;;4972709;28;20287;-70
2023/07/27 07:07:43;;;;;;;2.97;2.15;;;16.70;99.90;;;;;;5002508;28;20196;-71
2023/07/27 07:10:11;;;;;;;2.97;2.10;;;16.70;99.90;;;;;;5011961;28;20238;-70
2023/07/27 07:12:38;;;;;;;2.83;2.40;;;16.80;99.90;;;;;;5011509;28;20266;-70
2023/07/27 07:15:04;;;;;;;3.05;1.90;;;16.80;99.90;;;;;;5011583;28;20182;-70
2023/07/27 07:17:30;;;;;;;3.75;2.05;;;16.90;99.90;;;;;;4995696;28;20171;-70
2023/07/27 07:19:58;;;;;;;3.60;2.20;;;16.90;99.90;;;;;;5011816;28;20175;-71
2023/07/27 07:22:28;;;;;;;2.35;2.08;;;17.00;99.90;;;;;;5008430;28;20182;-71
2023/07/27 07:24:54;;;;;;;2.88;2.30;;;17.00;99.90;;;;;;4975532;28;20229;-70
2023/07/27 07:27:19;;;;;;;2.45;2.00;;;17.10;99.90;;;;;;4975684;28;20176;-71
2023/07/27 07:29:45;;;;;;;2.75;2.10;;;17.10;99.90;;;;;;4991632;28;20191;-70
2023/07/27 07:32:13;;;;;;;2.97;2.00;;;17.10;99.90;;;;;;4975702;28;20234;-71
2023/07/27 07:34:39;;;;;;;2.10;1.90;;;17.20;99.90;;;;;;4975764;28;20204;-69
2023/07/27 07:37:07;;;;;;;2.55;1.80;;;17.20;99.90;;;;;;4975993;28;20271;-70
2023/07/27 07:39:32;;;;;;;3.15;2.10;;;17.20;99.90;;;;;;4975155;28;20278;-70
2023/07/27 07:42:00;;;;;;;2.40;2.20;;;17.30;99.90;;;;;;4991647;28;20215;-72
2023/07/27 07:44:25;;;;;;;2.63;2.10;;;17.30;99.90;;;;;;4993381;28;20218;-70
2023/07/27 07:46:53;;;;;;;2.95;2.10;;;17.30;99.90;;;;;;4995813;28;20172;-70
2023/07/27 07:49:19;;;;;;;2.55;1.90;;;17.30;99.90;;;;;;4995242;28;20217;-70
2023/07/27 07:51:47;;;;;;;4.68;2.15;;;17.40;99.90;;;;;;4995601;28;20180;-70
2023/07/27 07:54:12;;;;;;;3.08;2.22;;;17.40;99.90;;;;;;4995535;28;20183;-70
2023/07/27 07:56:44;;;;;;;2.63;1.95;;;17.40;99.90;;;;;;5005276;28;20175;-70
2023/07/27 07:59:11;;;;;;;2.53;2.33;;;17.40;99.90;;;;;;4995947;28;20201;-69
2023/07/27 08:01:37;;;;;;;3.78;2.45;;;17.40;99.90;;;;;;4995863;28;20471;-64
2023/07/27 08:04:04;;;;;;;4.40;2.70;;;17.50;99.90;;;;;;5002936;28;20229;-65
2023/07/27 08:06:30;;;;;;;3.00;2.50;;;17.50;99.90;;;;;;4998273;28;20342;-66
2023/07/27 08:08:58;;;;;;;3.58;2.63;;;17.50;99.90;;;;;;4998569;28;20214;-66
2023/07/27 08:11:23;;;;;;;3.10;2.72;;;17.50;99.90;;;;;;4990181;28;20204;-65
2023/07/27 08:13:49;;;;;;;4.07;2.80;;;17.50;99.90;;;;;;4994795;28;20186;-65
2023/07/27 08:16:15;;;;;;;3.38;2.85;;;17.50;99.90;;;;;;4978883;28;20527;-65
2023/07/27 08:18:42;;;;;;;3.35;2.83;;;17.50;99.90;;;;;;4979294;28;20172;-65
2023/07/27 08:21:12;;;;;;;3.35;2.92;;;17.50;99.90;;;;;;4979258;28;20172;-65
2023/07/27 08:23:40;;;;;;;4.35;3.95;;;17.50;99.90;;;;;;4978752;28;20176;-65
2023/07/27 08:26:09;;;;;;;4.07;3.50;;;17.50;99.90;;;;;;4979032;28;20172;-65
2023/07/27 08:28:35;;;;;;;3.20;2.90;;;17.50;99.90;;;;;;4973302;28;20192;-65
2023/07/27 08:31:05;;;;;;;2.90;2.60;;;17.50;99.90;;;;;;4975539;28;20173;-65
2023/07/27 08:33:34;;;;;;;3.22;2.63;;;17.50;99.90;;;;;;4975033;28;20196;-66
2023/07/27 08:36:03;;;;;;;3.50;2.65;;;17.60;99.90;;;;;;4975487;28;20184;-67
2023/07/27 08:38:30;;;;;;;4.28;2.65;;;17.60;99.90;;;;;;4981392;28;20208;-67
2023/07/27 08:40:56;;;;;;;3.00;2.63;;;17.60;99.90;;;;;;4978159;28;20176;-64
2023/07/27 08:43:22;;;;;;;4.68;2.95;;;17.70;99.90;;;;;;4978451;28;20204;-66
2023/07/27 08:45:50;;;;;;;3.10;2.80;;;17.70;99.90;;;;;;4977532;28;20214;-65
2023/07/27 08:48:16;;;;;;;3.30;2.70;;;17.80;99.90;;;;;;4978278;28;20386;-66
2023/07/27 08:50:47;;;;;;;2.85;2.50;;;17.80;99.90;;;;;;4978231;28;20172;-66
2023/07/27 08:53:16;;;;;;;3.63;2.60;;;17.80;99.90;;;;;;4978069;28;20226;-66
2023/07/27 08:55:42;;;;;;;3.65;2.63;;;17.90;99.90;;;;;;4978202;28;20175;-66
2023/07/27 08:58:10;;;;;;;3.30;2.60;;;17.90;99.90;;;;;;4977776;28;20204;-67
2023/07/27 09:00:38;;;;;;;3.05;2.20;;;18.00;99.90;;;;;;4978331;28;20230;-66
2023/07/27 09:03:09;;;;;;;2.78;2.22;;;18.10;99.90;;;;;;4974615;28;20181;-66
2023/07/27 09:05:41;;;;;;;2.38;2.15;;;18.10;99.90;;;;;;4974953;28;20189;-67
2023/07/27 09:08:10;;;;;;;2.65;2.45;;;18.10;99.90;;;;;;4974699;28;20172;-67
2023/07/27 09:10:37;;;;;;;2.63;2.22;;;18.20;99.90;;;;;;4974635;28;20207;-67
2023/07/27 09:13:03;;;;;;;2.28;1.70;;;18.30;99.90;;;;;;4974758;28;20180;-67
2023/07/27 09:15:29;;;;;;;1.98;1.85;;;18.30;99.90;;;;;;4974463;28;20187;-66
2023/07/27 09:17:58;;;;;;;2.55;2.10;;;18.40;99.90;;;;;;4974683;28;20180;-67
2023/07/27 09:20:25;;;;;;;2.33;2.08;;;18.40;99.90;;;;;;4974618;28;20295;-67
2023/07/27 09:22:52;;;;;;;2.35;1.80;;;18.50;99.90;;;;;;4973738;28;20196;-66
2023/07/27 09:25:26;;;;;;;1.90;1.55;;;18.50;99.90;;;;;;4974482;28;20223;-67
2023/07/27 09:27:56;;;;;;;1.92;1.60;;;18.60;99.90;;;;;;4974768;28;20184;-67
2023/07/27 09:30:23;;;;;;;2.20;2.00;;;18.60;99.90;;;;;;4974112;28;20201;-67
2023/07/27 09:32:54;;;;;;;2.20;2.00;;;18.70;99.90;;;;;;4974353;28;20181;-67
2023/07/27 09:35:22;;;;;;;1.70;1.60;;;18.70;99.90;;;;;;4974443;28;20211;-67
2023/07/27 09:37:50;;;;;;;6.38;1.90;;;18.80;99.90;;;;;;4974831;28;20208;-67
2023/07/27 09:40:18;;;;;;;1.80;1.70;;;18.90;99.90;;;;;;4993233;28;20295;-67
2023/07/27 09:42:46;;;;;;;2.55;2.20;;;18.90;99.90;;;;;;4993503;28;20191;-67
2023/07/27 09:45:15;;;;;;;1.90;1.73;;;19.00;99.90;;;;;;4993498;28;20207;-66
2023/07/27 09:47:41;;;;;;;2.13;1.90;;;19.10;99.90;;;;;;4993341;28;20176;-67
2023/07/27 09:50:08;;;;;;;2.00;1.80;;;19.10;99.90;;;;;;4993575;28;20164;-67
2023/07/27 09:52:36;;;;;;;2.00;1.80;;;19.20;99.90;;;;;;4977230;28;20176;-67
2023/07/27 09:55:05;;;;;;;2.95;1.88;;;19.20;99.90;;;;;;4993009;28;20176;-67
2023/07/27 09:57:32;;;;;;;2.08;1.85;;;19.30;99.90;;;;;;4993428;28;20200;-68
2023/07/27 10:00:04;;;;;;;1.85;1.70;;;19.30;99.90;;;;;;4993245;28;20176;-67
2023/07/27 10:02:33;;;;;;;1.73;1.63;;;19.40;99.90;;;;;;4993007;28;20235;-67
2023/07/27 10:05:04;;;;;;;3.45;1.70;;;19.40;99.90;;;;;;5008485;28;20191;-67
2023/07/27 10:07:29;;;;;;;2.38;1.52;;;19.40;99.90;;;;;;4995754;28;20207;-68
2023/07/27 10:10:23;;;;;;;2.08;1.63;;;19.40;99.90;;;;;;4995663;28;20168;-66
2023/07/27 10:12:56;;;;;;;1.90;1.70;;;19.40;99.90;;;;;;5012334;28;20210;-66
2023/07/27 10:15:25;;;;;;;2.00;1.70;;;19.40;99.90;;;;;;5012808;28;20242;-66
2023/07/27 10:17:55;;;;;;;1.90;1.75;;;19.40;99.90;;;;;;5014312;28;20342;-65
2023/07/27 10:20:29;;;;;;;1.90;1.65;;;19.50;99.90;;;;;;5012463;28;20171;-65
2023/07/27 10:23:11;;;;;;;1.85;1.63;;;19.50;99.90;;;;;;5012424;28;20277;-68
2023/07/27 10:25:55;;;;;;;1.80;1.70;;;19.50;99.90;;;;;;5012469;28;20218;-68
2023/07/27 10:28:43;;;;;;;1.70;1.60;;;19.50;99.90;;;;;;5012144;28;20199;-68
2023/07/27 10:31:24;;;;;;;2.35;1.52;;;19.60;99.90;;;;;;5012509;28;20310;-68
2023/07/27 10:33:56;;;;;;;2.35;1.80;;;19.60;99.90;;;;;;5012284;28;20554;-69
2023/07/27 10:36:43;;;;;;;1.75;1.60;;;19.70;99.90;;;;;;5012327;28;20179;-67
2023/07/27 10:39:15;;;;;;;2.53;1.73;;;19.70;99.90;;;;;;5011996;28;20191;-69
2023/07/27 10:42:04;;;;;;;2.22;1.70;;;19.70;99.90;;;;;;4996393;28;20186;-66
2023/07/27 10:44:42;;;;;;;1.85;1.63;;;19.80;99.90;;;;;;5009106;28;20215;-67
2023/07/27 10:47:16;;;;;;;2.25;1.60;;;19.80;99.90;;;;;;5005046;28;20167;-67
2023/07/27 10:49:44;;;;;;;2.03;1.55;;;19.90;99.90;;;;;;4995399;28;20210;-67
2023/07/27 10:52:16;;;;;;;1.60;1.50;;;19.90;99.90;;;;;;4995565;28;20244;-67
2023/07/27 10:54:42;;;;;;;3.10;1.65;;;20.00;99.90;;;;;;4979300;28;20199;-67
2023/07/27 10:57:09;;;;;;;1.92;1.60;;;20.00;99.90;;;;;;4995634;28;20178;-67
2023/07/27 10:59:40;;;;;;;2.08;1.40;;;20.00;99.90;;;;;;4995350;28;20247;-67
2023/07/27 11:02:18;;;;;;;1.75;1.30;;;20.10;99.90;;;;;;4977445;28;20307;-67
2023/07/27 11:04:45;;;;;;;1.20;1.10;;;20.10;99.90;;;;;;4991696;28;20211;-67
2023/07/27 11:07:12;;;;;;;2.95;1.25;;;20.20;99.90;;;;;;4991961;28;20259;-67
2023/07/27 11:09:45;;;;;;;1.45;1.20;;;20.20;99.90;;;;;;4991802;28;20234;-67
2023/07/27 11:12:13;;;;;;;1.30;1.08;;;20.20;99.90;;;;;;4992079;28;20176;-67
2023/07/27 11:14:39;;;;;;;1.50;1.33;;;20.20;99.90;;;;;;4991679;28;20275;-67
2023/07/27 11:17:05;;;;;;;1.20;1.10;;;20.30;99.90;;;;;;4991821;28;20208;-67
2023/07/27 11:19:30;;;;;;;1.27;0.90;;;20.30;99.90;;;;;;5005419;28;20187;-66
2023/07/27 11:21:56;;;;;;;1.30;1.00;;;20.40;99.90;;;;;;5011278;28;20290;-67
2023/07/27 11:24:22;;;;;;;0.90;0.80;;;20.40;99.90;;;;;;5011294;28;20227;-67
2023/07/27 11:26:47;;;;;;;2.13;0.63;;;20.40;99.90;;;;;;5011432;28;20219;-66
2023/07/27 11:29:13;;;;;;;1.20;0.98;;;20.40;99.90;;;;;;5011582;28;20168;-66
2023/07/27 11:31:38;;;;;;;1.15;0.70;;;20.50;99.90;;;;;;5011050;28;20286;-66
2023/07/27 11:34:07;;;;;;;1.73;0.82;;;20.50;99.90;;;;;;5011111;28;20214;-67
2023/07/27 11:36:35;;;;;;;1.02;0.60;;;20.60;99.90;;;;;;4993622;28;20222;-65
2023/07/27 11:39:04;;;;;;;1.20;1.00;;;20.60;99.90;;;;;;4975635;28;20194;-66
2023/07/27 11:41:34;;;;;;;1.27;0.70;;;20.60;99.90;;;;;;4975477;28;20200;-66
2023/07/27 11:44:04;;;;;;;1.10;0.70;;;20.70;99.90;;;;;;4966954;28;20195;-65
2023/07/27 11:46:40;;;;;;;1.25;0.80;;;20.70;99.90;;;;;;4956351;29;20211;-67
2023/07/27 11:49:07;;;;;;;0.85;0.80;;;20.80;99.90;;;;;;4956136;29;20195;-66
2023/07/27 11:51:33;;;;;;;1.25;0.85;;;20.80;99.90;;;;;;4955866;28;20197;-66
2023/07/27 11:53:58;;;;;;;0.73;0.50;;;20.90;99.90;;;;;;4956209;29;20173;-66
2023/07/27 11:56:24;;;;;;;1.23;0.60;;;20.90;99.90;;;;;;4956963;28;20168;-66
2023/07/27 11:58:50;;;;;;;0.43;0.43;;;21.00;99.90;;;;;;4956093;28;20309;-67
2023/07/27 12:01:16;;;;;;;0.52;0.50;;;21.00;99.90;;;;;;4961632;28;20175;-67
2023/07/27 12:03:42;;;;;;;0.80;0.40;;;21.10;99.90;;;;;;4975306;28;20255;-66
2023/07/27 12:06:08;;;;;;;0.52;0.30;;;21.10;99.90;;;;;;4975765;28;20460;-66
2023/07/27 12:08:41;;;;;;;0.40;0.40;;;21.20;99.90;;;;;;4975381;28;20363;-67
2023/07/27 12:11:09;;;;;;;0.80;0.47;;;21.20;99.90;;;;;;4975806;28;20215;-66
2023/07/27 12:13:40;;;;;;;0.38;0.32;;;21.30;99.90;;;;;;4975030;28;20196;-66
2023/07/27 12:16:08;;;;;;;0.60;0.40;;;21.30;99.90;;;;;;4975359;28;20255;-68
2023/07/27 12:18:36;;;;;;;0.68;0.50;;;21.30;99.90;;;;;;4974464;28;20483;-66
2023/07/27 12:21:02;;;;;;;0.88;0.30;;;21.30;99.90;;;;;;4991356;28;20192;-67
2023/07/27 12:23:33;;;;;;;0.60;0.40;;;21.30;99.90;;;;;;4991331;28;20203;-67
2023/07/27 12:25:58;;;;;;;0.60;0.40;;;21.40;99.90;;;;;;4991172;28;20231;-66
2023/07/27 12:28:24;;;;;;;0.60;0.40;;;21.40;99.90;;;;;;4991103;28;20282;-67
2023/07/27 12:30:52;;;;;;;0.45;0.43;;;21.40;99.90;;;;;;4993805;28;20184;-67
2023/07/27 12:33:21;;;;;;;1.77;0.43;;;21.40;99.90;;;;;;4995027;28;20176;-66
2023/07/27 12:35:50;;;;;;;0.40;0.40;;;21.50;99.90;;;;;;4994864;28;20176;-67
2023/07/27 12:38:16;;;;;;;0.43;0.38;;;21.50;99.90;;;;;;5010557;28;20274;-66
2023/07/27 12:40:42;;;;;;;0.60;0.50;;;21.50;99.90;;;;;;5014344;28;20199;-66
2023/07/27 12:43:07;;;;;;;0.40;0.35;;;21.50;99.90;;;;;;5014152;28;20257;-67
2023/07/27 12:45:36;;;;;;;0.65;0.50;;;21.50;99.90;;;;;;5014461;28;20223;-66
2023/07/27 12:48:05;;;;;;;0.70;0.50;;;21.60;99.90;;;;;;5006459;28;20263;-66
2023/07/27 12:50:31;;;;;;;0.75;0.50;;;21.60;99.90;;;;;;4978490;28;20203;-65
2023/07/27 12:52:56;;;;;;;0.35;0.20;;;21.60;99.90;;;;;;4978038;28;20202;-66